Time;durP1;ratioP1;P1;durP2;ratioP2;P2;SDS_P1;SDS_P2;PMS_P1;PMS_P2;Temp;Humidity;BMP_temperature;BMP_pressure;BME280_temperature;BME280_humidity;BME280_pressure;Samples;Min_cycle;Max_cycle;Signal;HPM_P1;HPM_P2
2022/07/15 00:01:51;;;;;;;7.60;1.00;;;;;;;;;;5326575;28;20023;-73
2022/07/15 00:04:23;;;;;;;7.00;1.37;;;;;;;;;;5325217;28;20042;-73
2022/07/15 00:06:54;;;;;;;7.88;1.45;;;;;;;;;;5326491;28;20269;-73
2022/07/15 00:12:15;;;;;;;9.07;1.00;;;;;;;;;;5325397;28;20028;-73
2022/07/15 00:14:47;;;;;;;8.10;1.00;;;;;;;;;;5326132;28;20015;-73
2022/07/15 00:17:18;;;;;;;7.40;1.33;;;;;;;;;;5324915;28;20352;-73
2022/07/15 00:19:49;;;;;;;6.63;1.17;;;;;;;;;;5325377;28;20055;-73
2022/07/15 00:22:21;;;;;;;3.97;0.90;;;;;;;;;;5325261;28;20520;-73
2022/07/15 00:24:52;;;;;;;9.77;1.17;;;;;;;;;;5325102;28;20656;-73
2022/07/15 00:27:23;;;;;;;5.22;1.00;;;;;;;;;;5325339;28;20450;-73
2022/07/15 00:29:54;;;;;;;6.32;1.48;;;;;;;;;;5326044;28;20265;-73
2022/07/15 00:32:26;;;;;;;6.55;1.33;;;;;;;;;;5324385;28;20016;-73
2022/07/15 00:34:57;;;;;;;7.97;1.02;;;;;;;;;;5325761;28;20489;-73
2022/07/15 00:37:28;;;;;;;5.78;0.95;;;;;;;;;;5325182;28;20023;-73
2022/07/15 00:39:59;;;;;;;9.98;1.95;;;;;;;;;;5324802;28;20026;-73
2022/07/15 00:42:46;;;;;;;5.60;1.20;;;;;;;;;;5325502;28;20748;-73
2022/07/15 00:45:18;;;;;;;7.82;1.17;;;;;;;;;;5324618;28;20470;-73
2022/07/15 00:47:51;;;;;;;6.00;1.02;;;;;;;;;;5325461;28;20020;-73
2022/07/15 00:50:23;;;;;;;8.52;1.08;;;;;;;;;;5324981;28;20031;-73
2022/07/15 00:52:56;;;;;;;9.95;1.40;;;;;;;;;;5324822;28;20019;-73
2022/07/15 00:55:29;;;;;;;5.18;0.90;;;;;;;;;;5324704;28;20066;-73
2022/07/15 00:58:04;;;;;;;6.55;1.10;;;;;;;;;;5324973;28;20068;-73
2022/07/15 01:00:36;;;;;;;8.05;1.83;;;;;;;;;;5324373;28;20095;-73
2022/07/15 01:03:07;;;;;;;7.45;0.75;;;;;;;;;;5325062;28;20095;-73
2022/07/15 01:05:38;;;;;;;9.07;1.13;;;;;;;;;;5324973;28;20027;-73
2022/07/15 01:08:10;;;;;;;5.88;0.70;;;;;;;;;;5324091;28;20024;-74
2022/07/15 01:10:41;;;;;;;6.10;0.70;;;;;;;;;;5324731;28;20019;-73
2022/07/15 01:13:13;;;;;;;7.38;1.10;;;;;;;;;;5324971;28;20390;-73
2022/07/15 01:15:44;;;;;;;10.90;1.55;;;;;;;;;;5323957;28;20035;-73
2022/07/15 01:18:15;;;;;;;6.15;1.48;;;;;;;;;;5324845;28;20023;-73
2022/07/15 01:20:47;;;;;;;8.85;1.40;;;;;;;;;;5323409;28;20269;-72
2022/07/15 01:23:19;;;;;;;4.90;0.90;;;;;;;;;;5324155;28;20612;-73
2022/07/15 01:25:53;;;;;;;4.07;1.00;;;;;;;;;;5324958;28;20492;-73
2022/07/15 01:28:24;;;;;;;7.65;1.30;;;;;;;;;;5323285;28;20019;-73
2022/07/15 01:30:55;;;;;;;7.65;0.98;;;;;;;;;;5324615;28;20489;-73
2022/07/15 01:33:26;;;;;;;5.38;1.05;;;;;;;;;;5324073;28;20773;-73
2022/07/15 01:35:58;;;;;;;10.30;1.20;;;;;;;;;;5323968;28;20288;-73
2022/07/15 01:38:30;;;;;;;7.70;1.13;;;;;;;;;;5324068;28;20268;-74
2022/07/15 01:41:02;;;;;;;7.22;1.25;;;;;;;;;;5324332;28;20395;-73
2022/07/15 01:43:33;;;;;;;6.05;1.00;;;;;;;;;;5323407;28;20012;-73
2022/07/15 01:46:04;;;;;;;6.18;0.80;;;;;;;;;;5323910;28;20088;-74
2022/07/15 01:51:25;;;;;;;7.13;1.38;;;;;;;;;;5323831;28;20027;-73
2022/07/15 01:53:56;;;;;;;6.50;1.00;;;;;;;;;;5324345;28;20020;-74
2022/07/15 01:56:28;;;;;;;6.20;1.38;;;;;;;;;;5322558;28;20272;-73
2022/07/15 01:58:59;;;;;;;8.45;1.85;;;;;;;;;;5323829;28;20474;-73
2022/07/15 02:01:30;;;;;;;7.15;1.42;;;;;;;;;;5323711;28;20740;-73
2022/07/15 02:04:01;;;;;;;6.55;1.00;;;;;;;;;;5323196;28;20016;-74
2022/07/15 02:06:32;;;;;;;7.03;1.52;;;;;;;;;;5323560;28;20435;-74
2022/07/15 02:09:04;;;;;;;7.68;1.20;;;;;;;;;;5323622;28;20095;-74
2022/07/15 02:11:35;;;;;;;5.45;0.93;;;;;;;;;;5322989;28;20171;-74
2022/07/15 02:14:06;;;;;;;6.50;1.15;;;;;;;;;;5323748;28;20014;-74
2022/07/15 02:16:37;;;;;;;7.95;1.95;;;;;;;;;;5323017;28;20181;-73
2022/07/15 02:19:08;;;;;;;7.72;1.50;;;;;;;;;;5323317;28;20036;-73
2022/07/15 02:21:40;;;;;;;8.50;1.67;;;;;;;;;;5323416;28;20379;-74
2022/07/15 02:24:11;;;;;;;4.82;1.00;;;;;;;;;;5322710;28;20398;-73
2022/07/15 02:26:44;;;;;;;8.30;1.52;;;;;;;;;;5323500;28;20067;-73
2022/07/15 02:29:16;;;;;;;5.30;1.00;;;;;;;;;;5323294;28;20265;-73
2022/07/15 02:31:47;;;;;;;10.75;1.48;;;;;;;;;;5322336;28;20020;-73
2022/07/15 02:34:18;;;;;;;4.77;1.27;;;;;;;;;;5322994;28;20559;-74
2022/07/15 02:36:49;;;;;;;7.60;1.73;;;;;;;;;;5323567;28;20770;-74
2022/07/15 02:39:20;;;;;;;6.50;1.30;;;;;;;;;;5322239;28;20708;-74
2022/07/15 02:41:52;;;;;;;6.13;1.33;;;;;;;;;;5327400;28;20031;-74
2022/07/15 02:44:23;;;;;;;8.45;1.45;;;;;;;;;;5330060;28;20072;-73
2022/07/15 02:46:54;;;;;;;6.77;1.37;;;;;;;;;;5329711;28;20032;-73
2022/07/15 02:49:25;;;;;;;6.53;1.08;;;;;;;;;;5330237;28;20268;-73
2022/07/15 02:51:56;;;;;;;9.38;1.98;;;;;;;;;;5330002;28;20027;-74
2022/07/15 02:54:27;;;;;;;6.95;1.17;;;;;;;;;;5330135;28;20043;-74
2022/07/15 02:56:59;;;;;;;4.78;1.05;;;;;;;;;;5330448;28;20262;-73
2022/07/15 02:59:30;;;;;;;9.88;1.48;;;;;;;;;;5329635;28;20380;-74
2022/07/15 03:02:01;;;;;;;7.78;1.33;;;;;;;;;;5330149;28;20030;-73
2022/07/15 03:04:32;;;;;;;6.03;1.13;;;;;;;;;;5330181;28;20515;-74
2022/07/15 03:07:03;;;;;;;9.82;1.88;;;;;;;;;;5329217;28;20023;-73
2022/07/15 03:09:35;;;;;;;9.20;1.40;;;;;;;;;;5330341;28;20011;-73
2022/07/15 03:12:06;;;;;;;8.93;1.67;;;;;;;;;;5330169;28;20023;-73
2022/07/15 03:14:37;;;;;;;8.68;1.65;;;;;;;;;;5329352;28;20015;-74
2022/07/15 03:17:08;;;;;;;8.40;1.30;;;;;;;;;;5330223;28;20065;-74
2022/07/15 03:19:40;;;;;;;5.90;1.33;;;;;;;;;;5329937;28;20261;-74
2022/07/15 03:22:11;;;;;;;5.43;1.58;;;;;;;;;;5329049;28;20039;-74
2022/07/15 03:24:42;;;;;;;8.32;1.60;;;;;;;;;;5329910;28;20015;-74
2022/07/15 03:27:14;;;;;;;9.20;2.00;;;;;;;;;;5329056;28;20063;-74
2022/07/15 03:29:45;;;;;;;5.65;1.73;;;;;;;;;;5329788;28;20306;-73
2022/07/15 03:32:19;;;;;;;10.38;1.80;;;;;;;;;;5329770;28;20023;-74
2022/07/15 03:34:51;;;;;;;6.50;1.38;;;;;;;;;;5329512;28;20065;-73
2022/07/15 03:37:22;;;;;;;10.50;2.03;;;;;;;;;;5329672;28;20098;-74
2022/07/15 03:39:53;;;;;;;9.75;1.85;;;;;;;;;;5330122;28;20029;-74
2022/07/15 03:42:25;;;;;;;9.05;1.83;;;;;;;;;;5328651;28;20428;-74
2022/07/15 03:44:56;;;;;;;8.45;1.95;;;;;;;;;;5330003;28;20296;-73
2022/07/15 03:47:29;;;;;;;7.65;1.75;;;;;;;;;;5329383;28;20015;-74
2022/07/15 03:50:00;;;;;;;10.48;1.52;;;;;;;;;;5329124;28;20276;-74
2022/07/15 03:52:31;;;;;;;4.57;1.45;;;;;;;;;;5328164;28;20027;-74
2022/07/15 03:55:03;;;;;;;6.00;1.77;;;;;;;;;;5325809;28;20022;-74
2022/07/15 03:57:34;;;;;;;8.65;1.67;;;;;;;;;;5325608;28;20420;-73
2022/07/15 04:00:07;;;;;;;7.60;1.40;;;;;;;;;;5326266;28;20022;-74
2022/07/15 04:02:38;;;;;;;8.25;1.65;;;;;;;;;;5325274;28;20034;-74
2022/07/15 04:05:09;;;;;;;6.45;1.70;;;;;;;;;;5326116;28;20483;-74
2022/07/15 04:07:41;;;;;;;11.57;1.67;;;;;;;;;;5326012;28;20016;-74
2022/07/15 04:10:12;;;;;;;11.23;2.07;;;;;;;;;;5325240;28;20257;-74
2022/07/15 04:12:43;;;;;;;11.68;1.63;;;;;;;;;;5325957;28;20291;-74
2022/07/15 04:15:15;;;;;;;8.75;2.03;;;;;;;;;;5325807;28;20068;-74
2022/07/15 04:17:46;;;;;;;7.35;1.88;;;;;;;;;;5324903;28;20432;-74
2022/07/15 04:20:17;;;;;;;15.35;2.30;;;;;;;;;;5325600;28;20046;-74
2022/07/15 04:22:48;;;;;;;10.15;1.65;;;;;;;;;;5325575;28;20039;-74
2022/07/15 04:25:20;;;;;;;8.43;1.63;;;;;;;;;;5324518;28;20035;-74
2022/07/15 04:27:51;;;;;;;8.07;1.63;;;;;;;;;;5326092;28;20347;-74
2022/07/15 04:30:22;;;;;;;9.77;2.23;;;;;;;;;;5324411;28;20031;-74
2022/07/15 04:32:54;;;;;;;8.57;2.03;;;;;;;;;;5325973;28;20301;-74
2022/07/15 04:35:25;;;;;;;7.90;1.67;;;;;;;;;;5325226;28;20269;-74
2022/07/15 04:37:56;;;;;;;7.32;1.67;;;;;;;;;;5325007;28;20344;-74
2022/07/15 04:40:27;;;;;;;7.10;1.45;;;;;;;;;;5325157;28;20030;-74
2022/07/15 04:42:58;;;;;;;6.20;2.10;;;;;;;;;;5325420;28;20300;-74
2022/07/15 04:45:30;;;;;;;7.47;2.17;;;;;;;;;;5324366;28;20028;-74
2022/07/15 04:48:01;;;;;;;6.37;2.13;;;;;;;;;;5325382;28;20179;-73
2022/07/15 04:50:51;;;;;;;10.02;1.50;;;;;;;;;;5325279;28;20256;-74
2022/07/15 04:53:22;;;;;;;8.05;1.60;;;;;;;;;;5323928;28;20382;-74
2022/07/15 04:55:53;;;;;;;9.73;1.63;;;;;;;;;;5325240;28;20023;-74
2022/07/15 04:58:24;;;;;;;8.68;1.77;;;;;;;;;;5324006;28;20122;-74
2022/07/15 05:00:55;;;;;;;6.97;1.77;;;;;;;;;;5325255;28;20407;-74
2022/07/15 05:03:27;;;;;;;9.65;1.75;;;;;;;;;;5324723;28;20099;-74
2022/07/15 05:05:58;;;;;;;6.65;1.80;;;;;;;;;;5323867;28;20292;-74
2022/07/15 05:08:29;;;;;;;4.68;1.67;;;;;;;;;;5324640;28;20012;-74
2022/07/15 05:11:00;;;;;;;13.38;2.00;;;;;;;;;;5324905;28;20030;-74
2022/07/15 05:13:32;;;;;;;13.05;2.50;;;;;;;;;;5324451;28;20023;-74
2022/07/15 05:16:03;;;;;;;10.85;1.98;;;;;;;;;;5324691;28;20257;-74
2022/07/15 05:18:35;;;;;;;5.35;1.30;;;;;;;;;;5324562;28;20023;-74
2022/07/15 05:21:06;;;;;;;7.57;1.88;;;;;;;;;;5323663;28;20054;-73
2022/07/15 05:23:38;;;;;;;6.90;1.60;;;;;;;;;;5324482;28;20028;-74
2022/07/15 05:26:11;;;;;;;9.35;2.03;;;;;;;;;;5324436;28;20039;-74
2022/07/15 05:28:42;;;;;;;8.00;2.20;;;;;;;;;;5323607;28;20474;-73
2022/07/15 05:31:13;;;;;;;8.88;2.13;;;;;;;;;;5324463;28;20039;-73
2022/07/15 05:33:44;;;;;;;8.43;2.05;;;;;;;;;;5323726;28;20250;-74
2022/07/15 05:36:15;;;;;;;7.45;1.75;;;;;;;;;;5324232;28;20475;-74
2022/07/15 05:38:46;;;;;;;13.57;2.53;;;;;;;;;;5324424;28;20318;-74
2022/07/15 05:41:18;;;;;;;13.82;2.28;;;;;;;;;;5323480;28;20297;-74
2022/07/15 05:43:49;;;;;;;8.25;1.90;;;;;;;;;;5324801;28;20261;-74
2022/07/15 05:46:20;;;;;;;8.05;1.98;;;;;;;;;;5324028;28;20028;-74
2022/07/15 05:48:51;;;;;;;10.87;1.77;;;;;;;;;;5323588;28;20026;-74
2022/07/15 05:51:22;;;;;;;11.23;1.45;;;;;;;;;;5323705;28;20308;-74
2022/07/15 05:53:54;;;;;;;11.93;1.40;;;;;;;;;;5324261;28;20016;-74
2022/07/15 05:56:25;;;;;;;13.20;1.42;;;;;;;;;;5322631;28;20288;-74
2022/07/15 05:58:57;;;;;;;6.85;1.25;;;;;;;;;;5324404;28;20012;-74
2022/07/15 06:01:28;;;;;;;8.48;1.10;;;;;;;;;;5323375;28;20024;-74
2022/07/15 06:03:59;;;;;;;6.70;0.82;;;;;;;;;;5323351;28;20489;-74
2022/07/15 06:06:30;;;;;;;9.85;1.20;;;;;;;;;;5323489;28;20043;-74
2022/07/15 06:09:01;;;;;;;6.00;0.80;;;;;;;;;;5323003;28;20020;-74
2022/07/15 06:11:33;;;;;;;6.55;0.80;;;;;;;;;;5323787;28;20348;-74
2022/07/15 06:14:05;;;;;;;4.07;0.70;;;;;;;;;;5323566;28;20019;-74
2022/07/15 06:16:36;;;;;;;9.60;0.85;;;;;;;;;;5321995;28;20363;-74
2022/07/15 06:19:10;;;;;;;8.35;1.17;;;;;;;;;;5323646;28;20027;-74
2022/07/15 06:21:41;;;;;;;8.23;1.25;;;;;;;;;;5323387;28;20060;-74
2022/07/15 06:24:13;;;;;;;8.02;1.58;;;;;;;;;;5322875;28;20019;-74
2022/07/15 06:26:44;;;;;;;10.57;1.77;;;;;;;;;;5323414;28;20049;-74
2022/07/15 06:29:15;;;;;;;10.38;0.93;;;;;;;;;;5323397;28;20297;-74
2022/07/15 06:31:46;;;;;;;10.33;1.30;;;;;;;;;;5322573;28;20269;-74
2022/07/15 06:34:17;;;;;;;6.93;0.47;;;;;;;;;;5323418;28;20359;-74
2022/07/15 06:36:48;;;;;;;6.80;0.57;;;;;;;;;;5323328;28;20327;-74
2022/07/15 06:39:20;;;;;;;9.15;0.80;;;;;;;;;;5322294;28;20653;-74
2022/07/15 06:41:51;;;;;;;4.68;0.70;;;;;;;;;;5323623;28;20035;-74
2022/07/15 06:44:22;;;;;;;4.30;0.50;;;;;;;;;;5322255;28;20069;-74
2022/07/15 06:46:53;;;;;;;3.55;0.50;;;;;;;;;;5323499;28;20307;-74
2022/07/15 06:49:24;;;;;;;7.00;0.60;;;;;;;;;;5322922;28;20106;-73
2022/07/15 06:51:56;;;;;;;3.77;0.40;;;;;;;;;;5322614;28;20273;-74
2022/07/15 06:54:27;;;;;;;5.93;0.47;;;;;;;;;;5322683;28;20285;-74
2022/07/15 06:56:59;;;;;;;4.40;0.40;;;;;;;;;;5313474;28;20296;-73
2022/07/15 06:59:30;;;;;;;7.40;0.50;;;;;;;;;;5300113;28;20020;-73
2022/07/15 07:02:01;;;;;;;7.13;0.60;;;;;;;;;;5301074;28;20024;-73
2022/07/15 07:04:32;;;;;;;7.63;0.45;;;;;;;;;;5301189;28;20032;-73
2022/07/15 07:07:04;;;;;;;3.70;0.40;;;;;;;;;;5314774;28;20358;-74
2022/07/15 07:09:35;;;;;;;4.97;0.55;;;;;;;;;;5322259;28;20267;-74
2022/07/15 07:12:06;;;;;;;5.20;0.68;;;;;;;;;;5321258;28;20027;-73
2022/07/15 07:14:38;;;;;;;4.82;0.30;;;;;;;;;;5321957;28;20023;-74
2022/07/15 07:17:09;;;;;;;6.78;0.30;;;;;;;;;;5321767;28;20011;-74
2022/07/15 07:19:40;;;;;;;4.00;0.30;;;;;;;;;;5321318;28;20099;-74
2022/07/15 07:22:11;;;;;;;3.67;0.50;;;;;;;;;;5314407;28;20793;-74
2022/07/15 07:24:42;;;;;;;2.33;0.30;;;;;;;;;;5308947;28;20270;-73
2022/07/15 07:27:14;;;;;;;6.28;0.30;;;;;;;;;;5295135;28;20081;-72
2022/07/15 07:29:45;;;;;;;3.40;0.40;;;;;;;;;;5306375;28;20077;-73
2022/07/15 07:32:16;;;;;;;3.55;0.30;;;;;;;;;;5304137;28;20479;-72
2022/07/15 07:34:47;;;;;;;3.95;0.30;;;;;;;;;;5303786;28;20827;-72
2022/07/15 07:37:19;;;;;;;4.80;0.30;;;;;;;;;;5304188;28;20099;-72
2022/07/15 07:39:50;;;;;;;7.45;0.40;;;;;;;;;;5309016;28;20016;-72
2022/07/15 07:42:21;;;;;;;6.90;0.30;;;;;;;;;;5324445;28;20069;-73
2022/07/15 07:44:52;;;;;;;6.82;0.20;;;;;;;;;;5325648;28;20070;-73
2022/07/15 07:47:24;;;;;;;4.10;0.20;;;;;;;;;;5324441;28;20269;-74
2022/07/15 07:49:55;;;;;;;2.97;0.30;;;;;;;;;;5325720;28;20481;-73
2022/07/15 07:52:26;;;;;;;1.95;0.13;;;;;;;;;;5325538;28;20389;-73
2022/07/15 07:54:57;;;;;;;3.50;0.30;;;;;;;;;;5325816;28;20111;-74
2022/07/15 07:57:28;;;;;;;4.73;0.30;;;;;;;;;;5326082;28;20265;-74
2022/07/15 07:59:59;;;;;;;4.30;0.20;;;;;;;;;;5326350;28;20285;-73
2022/07/15 08:02:31;;;;;;;3.53;0.20;;;;;;;;;;5325368;28;20110;-74
2022/07/15 08:05:02;;;;;;;5.67;0.40;;;;;;;;;;5326135;28;20363;-73
2022/07/15 08:07:34;;;;;;;5.75;0.50;;;;;;;;;;5326139;28;20280;-74
2022/07/15 08:10:06;;;;;;;3.40;0.40;;;;;;;;;;5325426;28;20431;-73
2022/07/15 08:12:38;;;;;;;2.83;0.20;;;;;;;;;;5326169;28;20028;-73
2022/07/15 08:15:10;;;;;;;0.93;0.10;;;;;;;;;;5326086;27;20016;-72
2022/07/15 08:17:41;;;;;;;3.15;0.35;;;;;;;;;;5324842;28;20095;-73
2022/07/15 08:20:13;;;;;;;4.05;0.28;;;;;;;;;;5325960;28;20103;-72
2022/07/15 08:22:44;;;;;;;4.63;0.30;;;;;;;;;;5324913;28;20058;-73
2022/07/15 08:25:15;;;;;;;4.07;0.30;;;;;;;;;;5325759;28;20026;-74
2022/07/15 08:27:47;;;;;;;3.63;0.30;;;;;;;;;;5325724;28;20349;-73
2022/07/15 08:30:19;;;;;;;2.08;0.20;;;;;;;;;;5324750;28;20011;-73
2022/07/15 08:32:50;;;;;;;4.90;0.40;;;;;;;;;;5325958;28;20061;-74
2022/07/15 08:35:22;;;;;;;1.17;0.23;;;;;;;;;;5324956;28;20035;-74
2022/07/15 08:37:53;;;;;;;3.75;0.30;;;;;;;;;;5324898;28;20299;-73
2022/07/15 08:40:26;;;;;;;5.95;0.60;;;;;;;;;;5324357;28;20075;-74
2022/07/15 08:42:57;;;;;;;2.50;0.65;;;;;;;;;;5325530;28;20016;-74
2022/07/15 08:45:28;;;;;;;4.57;0.20;;;;;;;;;;5324334;28;20031;-75
2022/07/15 08:48:01;;;;;;;3.13;0.25;;;;;;;;;;5325222;28;20110;-75
2022/07/15 08:50:33;;;;;;;4.35;0.32;;;;;;;;;;5324052;27;20067;-74
2022/07/15 08:53:05;;;;;;;1.52;0.20;;;;;;;;;;5324999;28;20019;-73
2022/07/15 08:55:36;;;;;;;1.58;0.13;;;;;;;;;;5324911;28;20016;-74
2022/07/15 08:58:07;;;;;;;4.53;0.20;;;;;;;;;;5324370;28;20487;-73
2022/07/15 09:00:39;;;;;;;1.77;0.25;;;;;;;;;;5325006;27;20327;-73
2022/07/15 09:03:10;;;;;;;3.90;0.63;;;;;;;;;;5324768;28;20113;-74
2022/07/15 09:05:41;;;;;;;2.03;0.30;;;;;;;;;;5323874;28;20289;-73
2022/07/15 09:08:16;;;;;;;1.85;0.30;;;;;;;;;;5324997;28;20024;-72
2022/07/15 09:11:06;;;;;;;3.22;0.30;;;;;;;;;;5324349;28;20020;-72
2022/07/15 09:13:38;;;;;;;2.40;0.20;;;;;;;;;;5323323;28;20028;-73
2022/07/15 09:16:11;;;;;;;5.43;0.30;;;;;;;;;;5324740;28;20023;-72
2022/07/15 09:18:43;;;;;;;2.03;0.30;;;;;;;;;;5323811;28;20489;-73
2022/07/15 09:21:21;;;;;;;1.70;0.20;;;;;;;;;;5323294;28;20039;-72
2022/07/15 09:23:53;;;;;;;2.15;0.20;;;;;;;;;;5324066;28;20020;-73
2022/07/15 09:26:29;;;;;;;2.47;0.25;;;;;;;;;;5322752;28;20039;-73
2022/07/15 09:29:00;;;;;;;3.05;0.20;;;;;;;;;;5324331;28;20028;-73
2022/07/15 09:34:26;;;;;;;2.05;0.30;;;;;;;;;;5323497;28;20102;-71
2022/07/15 09:37:03;;;;;;;4.88;0.30;;;;;;;;;;5324392;28;20102;-71
2022/07/15 09:39:52;;;;;;;3.78;0.30;;;;;;;;;;5324250;28;20022;-71
2022/07/15 09:42:24;;;;;;;3.20;0.30;;;;;;;;;;5323911;28;20019;-71
2022/07/15 09:44:55;;;;;;;2.55;0.20;;;;;;;;;;5324375;28;20072;-71
2022/07/15 09:47:30;;;;;;;2.25;0.40;;;;;;;;;;5323145;28;20027;-71
2022/07/15 09:50:01;;;;;;;2.88;0.20;;;;;;;;;;5324074;28;20050;-71
2022/07/15 09:52:44;;;;;;;2.67;0.20;;;;;;;;;;5323472;28;20055;-71
2022/07/15 09:55:15;;;;;;;2.55;0.20;;;;;;;;;;5323414;28;20070;-71
2022/07/15 09:57:46;;;;;;;4.40;0.28;;;;;;;;;;5323898;28;20051;-72
2022/07/15 10:00:18;;;;;;;2.37;0.20;;;;;;;;;;5323947;28;20020;-72
2022/07/15 10:02:50;;;;;;;2.70;0.20;;;;;;;;;;5323475;28;20058;-72
2022/07/15 10:05:22;;;;;;;3.58;0.20;;;;;;;;;;5323393;28;20453;-72
2022/07/15 10:07:56;;;;;;;3.33;0.20;;;;;;;;;;5323270;28;20058;-72
2022/07/15 10:10:27;;;;;;;1.88;0.20;;;;;;;;;;5323289;28;20023;-72
2022/07/15 10:13:10;;;;;;;2.83;0.20;;;;;;;;;;5324093;28;20374;-72
2022/07/15 10:15:53;;;;;;;4.90;0.20;;;;;;;;;;5322671;28;20073;-73
2022/07/15 10:18:32;;;;;;;2.33;0.20;;;;;;;;;;5322755;28;20039;-73
2022/07/15 10:21:13;;;;;;;2.97;0.20;;;;;;;;;;5323492;28;20375;-73
2022/07/15 10:24:09;;;;;;;2.33;0.20;;;;;;;;;;5322669;28;20019;-74
2022/07/15 10:27:19;;;;;;;2.03;0.20;;;;;;;;;;5323426;28;20027;-72
2022/07/15 10:29:50;;;;;;;3.60;0.30;;;;;;;;;;5236927;28;20036;-73
2022/07/15 10:32:22;;;;;;;6.47;0.30;;;;;;;;;;5237121;28;20018;-73
2022/07/15 10:34:53;;;;;;;4.63;0.30;;;;;;;;;;5285768;28;20756;-73
2022/07/15 10:37:27;;;;;;;1.75;0.20;;;;;;;;;;5322255;28;20079;-73
2022/07/15 10:40:06;;;;;;;3.38;0.20;;;;;;;;;;5323489;28;20023;-73
2022/07/15 10:42:57;;;;;;;1.55;0.35;;;;;;;;;;5323257;28;20016;-72
2022/07/15 10:45:29;;;;;;;2.40;0.30;;;;;;;;;;5321875;28;20036;-72
2022/07/15 10:48:20;;;;;;;2.35;0.28;;;;;;;;;;5323429;28;20546;-73
2022/07/15 10:50:51;;;;;;;1.73;0.20;;;;;;;;;;5322846;28;20463;-73
2022/07/15 10:53:25;;;;;;;3.10;0.20;;;;;;;;;;5322704;28;20056;-72
2022/07/15 10:56:16;;;;;;;1.10;0.30;;;;;;;;;;5323369;28;20008;-74
2022/07/15 10:59:06;;;;;;;1.55;0.20;;;;;;;;;;5322097;28;20022;-72
2022/07/15 11:01:38;;;;;;;1.52;0.20;;;;;;;;;;5323196;28;20017;-71
2022/07/15 11:04:12;;;;;;;2.55;0.10;;;;;;;;;;5326361;28;20016;-70
2022/07/15 11:07:01;;;;;;;5.55;0.20;;;;;;;;;;5327531;28;20034;-70
2022/07/15 11:09:52;;;;;;;1.67;0.15;;;;;;;;;;5327347;28;20037;-69
2022/07/15 11:12:41;;;;;;;1.27;0.30;;;;;;;;;;5326192;28;20024;-70
2022/07/15 11:15:14;;;;;;;1.75;0.20;;;;;;;;;;5325931;28;20015;-70
2022/07/15 11:17:46;;;;;;;3.40;0.10;;;;;;;;;;5327286;28;20063;-70
2022/07/15 11:20:23;;;;;;;4.35;0.20;;;;;;;;;;5326385;28;20479;-70
2022/07/15 11:22:55;;;;;;;1.60;0.10;;;;;;;;;;5327251;28;20076;-70
2022/07/15 11:25:40;;;;;;;2.55;0.20;;;;;;;;;;5325819;28;20027;-70
2022/07/15 11:28:13;;;;;;;1.58;0.10;;;;;;;;;;5327232;28;20091;-70
2022/07/15 11:30:53;;;;;;;2.72;0.28;;;;;;;;;;5327169;28;20015;-70
2022/07/15 11:33:29;;;;;;;2.45;0.20;;;;;;;;;;5325875;28;20382;-70
2022/07/15 11:36:01;;;;;;;4.00;0.20;;;;;;;;;;5327168;27;20020;-71
2022/07/15 11:38:37;;;;;;;2.05;0.20;;;;;;;;;;5326548;28;20030;-70
2022/07/15 11:46:57;;;;;;;1.08;0.10;;;;;;;;;;5326293;28;20043;-70
2022/07/15 11:49:29;;;;;;;2.38;0.20;;;;;;;;;;5326308;28;20008;-70
2022/07/15 11:52:02;;;;;;;2.40;0.20;;;;;;;;;;5326614;28;20043;-70
2022/07/15 11:54:36;;;;;;;3.40;0.10;;;;;;;;;;5325767;28;20485;-70
2022/07/15 11:57:09;;;;;;;2.33;0.20;;;;;;;;;;5326321;28;20439;-70
2022/07/15 11:59:40;;;;;;;1.17;0.10;;;;;;;;;;5326594;28;20019;-70
2022/07/15 12:02:12;;;;;;;1.47;0.17;;;;;;;;;;5325799;28;20019;-71
2022/07/15 12:04:44;;;;;;;2.42;0.10;;;;;;;;;;5326234;28;20279;-70
2022/07/15 12:07:15;;;;;;;1.33;0.10;;;;;;;;;;5321976;28;20028;-70
2022/07/15 12:09:50;;;;;;;1.63;0.20;;;;;;;;;;5325231;28;20022;-70
2022/07/15 12:12:21;;;;;;;1.10;0.10;;;;;;;;;;5325702;28;20019;-70
2022/07/15 12:14:53;;;;;;;1.33;0.10;;;;;;;;;;5324526;28;20118;-70
2022/07/15 12:17:24;;;;;;;1.00;0.10;;;;;;;;;;5325686;28;20022;-70
2022/07/15 12:19:58;;;;;;;1.90;0.10;;;;;;;;;;5326019;28;20019;-70
2022/07/15 12:22:29;;;;;;;1.55;0.20;;;;;;;;;;5324128;28;20058;-70
2022/07/15 12:25:00;;;;;;;0.93;0.20;;;;;;;;;;5325625;28;20020;-69
2022/07/15 12:27:33;;;;;;;1.35;0.20;;;;;;;;;;5325208;28;20648;-70
2022/07/15 12:30:05;;;;;;;3.72;0.35;;;;;;;;;;5321909;28;20012;-70
2022/07/15 12:32:37;;;;;;;1.48;0.10;;;;;;;;;;5312276;28;20019;-71
2022/07/15 12:35:08;;;;;;;4.65;0.20;;;;;;;;;;5325596;28;20012;-70
2022/07/15 12:37:39;;;;;;;3.05;0.20;;;;;;;;;;5324297;28;20031;-70
2022/07/15 12:40:12;;;;;;;1.40;0.10;;;;;;;;;;5325369;28;20011;-70
2022/07/15 12:42:45;;;;;;;3.20;0.10;;;;;;;;;;5323829;28;20018;-70
2022/07/15 12:45:20;;;;;;;2.08;0.20;;;;;;;;;;5325155;28;20016;-70
2022/07/15 12:48:13;;;;;;;1.58;0.10;;;;;;;;;;5325404;28;20012;-71
2022/07/15 12:50:47;;;;;;;2.75;0.40;;;;;;;;;;5324342;28;20362;-70
2022/07/15 12:53:19;;;;;;;2.58;0.10;;;;;;;;;;5324560;28;20016;-71
2022/07/15 12:55:51;;;;;;;2.53;0.10;;;;;;;;;;5325306;27;20467;-72
2022/07/15 12:58:30;;;;;;;7.95;0.20;;;;;;;;;;5324361;28;20034;-71
2022/07/15 13:01:09;;;;;;;1.38;0.10;;;;;;;;;;5325048;28;20016;-71
2022/07/15 13:03:40;;;;;;;;;;;;;;;;;;5325261;28;20379;-71
2022/07/15 13:06:14;;;;;;;5.93;0.20;;;;;;;;;;5324155;28;19911;-71
2022/07/15 13:08:45;;;;;;;4.65;0.20;;;;;;;;;;5324818;28;20072;-71
2022/07/15 13:11:18;;;;;;;1.27;0.20;;;;;;;;;;5323926;28;20023;-70
2022/07/15 13:13:50;;;;;;;7.03;0.30;;;;;;;;;;5324958;28;20153;-70
2022/07/15 13:16:21;;;;;;;6.10;0.30;;;;;;;;;;5324707;28;20492;-71
2022/07/15 13:18:52;;;;;;;6.32;0.52;;;;;;;;;;5324263;28;20019;-70
2022/07/15 13:21:23;;;;;;;3.85;0.30;;;;;;;;;;5323982;28;20402;-70
2022/07/15 13:23:54;;;;;;;5.00;0.20;;;;;;;;;;5324746;28;20058;-71
2022/07/15 13:26:25;;;;;;;4.27;0.27;;;;;;;;;;5323397;28;20028;-70
2022/07/15 13:28:56;;;;;;;3.67;0.20;;;;;;;;;;5324785;28;20099;-70
2022/07/15 13:31:28;;;;;;;4.72;0.30;;;;;;;;;;5324177;28;20023;-70
2022/07/15 13:33:59;;;;;;;3.43;0.30;;;;;;;;;;5323753;28;20020;-70
2022/07/15 13:36:30;;;;;;;3.00;0.20;;;;;;;;;;5324322;28;20565;-70
2022/07/15 13:39:02;;;;;;;2.57;0.20;;;;;;;;;;5323719;28;20011;-70
2022/07/15 13:41:33;;;;;;;2.78;0.30;;;;;;;;;;5324594;28;20029;-70
2022/07/15 13:44:04;;;;;;;3.60;0.23;;;;;;;;;;5324302;28;20020;-71
2022/07/15 13:46:35;;;;;;;2.23;0.30;;;;;;;;;;5323290;28;20325;-72
2022/07/15 13:49:06;;;;;;;1.60;0.30;;;;;;;;;;5324183;28;20269;-72
2022/07/15 13:51:40;;;;;;;2.70;0.50;;;;;;;;;;5324090;28;20028;-72
2022/07/15 13:54:12;;;;;;;4.40;0.40;;;;;;;;;;5323258;28;20735;-72
2022/07/15 13:56:43;;;;;;;5.20;0.40;;;;;;;;;;5323981;28;20081;-73
2022/07/15 13:59:14;;;;;;;6.80;0.63;;;;;;;;;;5323877;28;20023;-73
2022/07/15 14:01:45;;;;;;;8.75;0.20;;;;;;;;;;5322685;28;20015;-73
2022/07/15 14:04:17;;;;;;;4.10;0.32;;;;;;;;;;5323339;28;20016;-72
2022/07/15 14:06:48;;;;;;;1.02;0.20;;;;;;;;;;5323819;28;20542;-72
2022/07/15 14:09:19;;;;;;;3.25;0.30;;;;;;;;;;5322555;28;20019;-72
2022/07/15 14:11:50;;;;;;;1.43;0.27;;;;;;;;;;5323959;28;20035;-72
2022/07/15 14:14:22;;;;;;;4.03;0.45;;;;;;;;;;5322606;28;20053;-71
2022/07/15 14:16:53;;;;;;;3.83;0.30;;;;;;;;;;5324135;28;20020;-71
2022/07/15 14:19:24;;;;;;;2.42;0.30;;;;;;;;;;5323433;28;20032;-71
2022/07/15 14:21:56;;;;;;;1.33;0.20;;;;;;;;;;5323032;28;20043;-71
2022/07/15 14:24:27;;;;;;;4.50;0.30;;;;;;;;;;5323211;28;20258;-71
2022/07/15 14:26:58;;;;;;;4.33;0.30;;;;;;;;;;5324062;28;20478;-71
2022/07/15 14:29:29;;;;;;;3.28;0.40;;;;;;;;;;5322434;28;20265;-71
2022/07/15 14:32:00;;;;;;;3.15;0.30;;;;;;;;;;5323527;28;20455;-71
2022/07/15 14:34:32;;;;;;;2.33;0.30;;;;;;;;;;5323427;28;20016;-70
2022/07/15 14:37:03;;;;;;;3.57;0.40;;;;;;;;;;5321867;28;20081;-69
2022/07/15 14:39:34;;;;;;;3.92;0.20;;;;;;;;;;5323556;28;20340;-70
2022/07/15 14:42:05;;;;;;;3.35;0.30;;;;;;;;;;5323188;28;20015;-70
2022/07/15 14:44:37;;;;;;;3.20;0.30;;;;;;;;;;5322509;28;20027;-70
2022/07/15 14:47:08;;;;;;;5.40;0.38;;;;;;;;;;5323029;28;20061;-70
2022/07/15 14:49:39;;;;;;;5.60;0.40;;;;;;;;;;5322509;28;20024;-70
2022/07/15 14:52:10;;;;;;;6.33;0.40;;;;;;;;;;5322802;28;20062;-70
2022/07/15 14:54:41;;;;;;;2.33;0.30;;;;;;;;;;5322960;28;20643;-70
2022/07/15 14:57:13;;;;;;;3.35;0.32;;;;;;;;;;5322181;28;20277;-71
2022/07/15 14:59:44;;;;;;;1.48;0.28;;;;;;;;;;5322878;28;20018;-70
2022/07/15 15:02:15;;;;;;;1.08;0.28;;;;;;;;;;5322583;28;20099;-71
2022/07/15 15:04:46;;;;;;;2.08;0.30;;;;;;;;;;5322440;28;20011;-71
2022/07/15 15:07:17;;;;;;;3.70;0.40;;;;;;;;;;5323193;28;20024;-71
2022/07/15 15:09:49;;;;;;;3.80;0.30;;;;;;;;;;5323168;28;20015;-71
2022/07/15 15:12:20;;;;;;;1.83;0.20;;;;;;;;;;5322138;28;20030;-71
2022/07/15 15:14:51;;;;;;;3.37;0.27;;;;;;;;;;5323483;28;20261;-72
2022/07/15 15:17:22;;;;;;;3.33;0.20;;;;;;;;;;5322187;28;20261;-72
2022/07/15 15:19:53;;;;;;;4.40;0.30;;;;;;;;;;5323717;28;20118;-72
2022/07/15 15:22:24;;;;;;;1.35;0.30;;;;;;;;;;5322398;28;20286;-71
2022/07/15 15:24:56;;;;;;;4.57;0.30;;;;;;;;;;5322426;28;20038;-72
2022/07/15 15:27:27;;;;;;;2.50;0.20;;;;;;;;;;5322894;28;20360;-72
2022/07/15 15:29:58;;;;;;;1.38;0.20;;;;;;;;;;5323432;28;20061;-72